KBUR/BUR METAR and TAF weather

Enter ICAO airport designator
Station Type Date Time Source
KBUR METAR 2020/12/05 05:53 UTC NOAA

KBUR 050553Z 30003KT 10SM CLR 12/M11 A3017 RMK AO2 SLP210 T01171111 10211 20100 51015


Station Type Date Time Source
KBUR Decoded METAR 2020/12/05 05:53 UTC NOAA

BURBANK-GLENDALE-PASADENA, CA, United States (KBUR) 34-12N 118-22W 217M
Dec 05, 2020 - 12:53 AM EST / 2020.12.05 0553 UTC
Wind: from the WNW (300 degrees) at 3 MPH (3 KT):0
Visibility: 10 mile(s):0
Sky conditions: clear
Temperature: 53.1 F (11.7 C)
Dew Point: 12.0 F (-11.1 C)
Relative Humidity: 19%
Pressure (altimeter): 30.17 in. Hg (1021 hPa)
Pressure tendency: 0.04 inches (1.5 hPa) higher than three hours ago
ob: KBUR 050553Z 30003KT 10SM CLR 12/M11 A3017 RMK AO2 SLP210 T01171111 10211 20100 51015
cycle: 6

Station Type Date Time Source
KBUR TAF 2020/12/05 06:36 UTC NOAA

TAF KBUR 050533Z 0506/0606 VRB03KT P6SM SKC
FM050900 00000KT P6SM SKC
FM052000 15005KT P6SM SKC

Example: see airport list